LFSB Airport Informations

Runway Information
Runway 07 Length 5626 ft width 197 ft
Elevation 881 ft Threshold ft Heading 77
Runway 25 Length 5626 ft Width 197 ft
Elevation 884 ft Threshold 722 ft Heading 257
Runway 15 Length 12795 ft width 197 ft
Elevation 865 ft Threshold ft Heading 155
Runway 33 Length 12795 ft Width 197 ft
Elevation 882 ft Threshold ft Heading 335
Airport Frequencies
Type A/D Name APP Frequency 118.575 MHZ
Type ATIS Name ATIS Frequency 127.875 MHZ
Type GND Name GND Frequency 121.6 MHZ
Type INFO Name INFO Frequency 121.25 MHZ
Type PFLT Name PREFLIGHT Frequency 120.5 MHZ
Type TWR Name TWR Frequency 118.3 MHZ
Airport Navaids
Type VOR-DME Name Bale Mulhouse Frequency 117450 KHZ
Type NDB Name Bale Mulhouse Frequency 353 KHZ
Airport Weather Information & NOTAM
ADDS - METARS form results

(1834 UTC 16 August 2022)
Data provider http://aviationweather.gov/metar/data/
 
METAR text: LFSB 161830Z AUTO VRB03KT CAVOK 24/15 Q1008 NOSIG
Conditions at: LFSB (BALE/MULHOUSE , FR) observed 1830 UTC 16 August 2022
Temperature: 24.0°C (75°F)
Dewpoint: 15.0°C (59°F) [RH = 57%]
Pressure (altimeter): 29.76 inches Hg (1008.0 mb)
Winds: variable direction winds at 3 MPH (3 knots; 1.5 m/s)
Visibility: 6 or more miles (10+ km)
Ceiling: ceiling and visibility are OK
Clouds: unknown
Weather: no significant weather observed at this time

METAR text: LFSB 161800Z AUTO 02003KT 360V080 CAVOK 29/11 Q1008 NOSIG
Conditions at: LFSB (BALE/MULHOUSE , FR) observed 1800 UTC 16 August 2022
Temperature: 29.0°C (84°F)
Dewpoint: 11.0°C (52°F) [RH = 33%]
Pressure (altimeter): 29.76 inches Hg (1008.0 mb)
Winds: from the NNE (20 degrees) at 3 MPH (3 knots; 1.5 m/s)
Visibility: 6 or more miles (10+ km)
Ceiling: ceiling and visibility are OK
Clouds: unknown
Weather: no significant weather observed at this time

Forecast for: LFSB (BALE/MULHOUSE , FR)
Text: TAF LFSB 161700Z 1618/1718 02004KT CAVOK
Forecast period: 1800 UTC 16 August 2022 to 1800 UTC 17 August 2022
Forecast type: FROM: standard forecast or significant change
Winds: from the NNE (20 degrees) at 5 MPH (4 knots; 2.1 m/s)
Visibility: 6 or more miles (10+ km)
Ceiling: unknown
Clouds: missing
Weather: NSW  (no significant weather)
Text: TEMPO 1623/1705 26010KT -SHRA SCT080TCU
Forecast period: 2300 UTC 16 August 2022 to 0500 UTC 17 August 2022
Forecast type: TEMPORARY: The following changes expected for less than half the time period
Winds: from the W (260 degrees) at 12 MPH (10 knots; 5.1 m/s)
Visibility: missing
Ceiling: at least 12,000 feet AGL
Clouds: scattered clouds at 8000 feet AGL
Weather: -SHRA  (light rain showers)
Text: PROB40
Forecast period: 0000 to 0400 UTC 17 August 2022
Forecast type: TEMPORARY: The following changes expected for less than half the time period
Winds: from the W (270 degrees) at 17 MPH (15 knots; 7.7 m/s)
gusting to 29 MPH (25 knots; 12.9 m/s)
Visibility: 2.49 miles (4.01 km)
Ceiling: at least 12,000 feet AGL
Clouds: scattered clouds at 7000 feet AGL
Weather: SHRA  (rain showers)